Lewistown Municipal Airport Lewistown US
ICAO: KLWT
IATA: LWT
Category: Medium
Scheduled Services: Yes

Elevation: 4170 ft
TransAlt. 18000 ft.

Airport Communications:
ASOS:118.375
GREAT FALLS RDO:122.35
CTAF/UNICOM:123

KLWT Zoom In..

If Map Doesn't Load, Click Here

Runways:

(A) RW 03 length 5600 ft width 101 ft
---- / hdg 23

(B) RW 08 length 6100 ft width 100 ft
---- / hdg 75

(C) RW 13 length 4102 ft width 62 ft
---- / hdg 125

(D) RW 21 length 5600 ft width 101 ft
---- / hdg 203

(E) RW 26 length 6100 ft width 100 ft
---- / hdg 255

(F) RW 31 length 4102 ft width 62 ft
---- / hdg 305

Location; KLWT
Day. 21 / Time. 14.54 Zulu
* Altimeter: 30.13
* Temperature: 6/° c. 42.8°f.
* Wind from: 120° Speed 05 kn.
Dewpoint: //° c.
Visibility: 10 Statute Miles.
Clouds: Clear (automated report).

KLWT 211454Z AUTO 12005KT 10SM CLR 07/05 A3013 RMK AO2 SLP207 6//// T00670050 58003 PNO $


Wind From 120°
Speed 05 kn.

 
 
jpsmedia.com for Web Design worldairports.se 2018   terms of use